Terminal Aerodrome Forecast
Issued by NWS Topeka, KS

Home | Current Version | Previous Version | Text Only | Print | Product List | Glossary On
Versions: 1 2 3 4 5 6 7 8 9 10 11 12 13 14 15 16 17 18 19 20 21 22 23 24 25 26 27 28 29 30
000
FTUS43 KTOP 231700
TAFTOP
TAF
KTOP 231729Z 2318/2418 21009KT P6SM BKN015 OVC025
     FM232000 22009KT P6SM BKN025
     FM240000 19005KT P6SM BKN035
     FM240600 17004KT 5SM BR BKN025=

USA.gov is the U.S. government's official web portal to all federal, state and local government web resources and services.